Time;durP1;ratioP1;P1;durP2;ratioP2;P2;SDS_P1;SDS_P2;PMS_P1;PMS_P2;Temp;Humidity;BMP_temperature;BMP_pressure;BME280_temperature;BME280_humidity;BME280_pressure;Samples;Min_cycle;Max_cycle;Signal;HPM_P1;HPM_P2
2021/10/07 00:01:17;;;;;;;1.75;1.25;;;;;;;10.37;100.00;101593.44;4906961;28;20051;-84
2021/10/07 00:03:43;;;;;;;1.15;1.05;;;;;;;10.37;100.00;101586.47;4888449;28;22350;-85
2021/10/07 00:06:10;;;;;;;0.85;0.85;;;;;;;10.34;99.59;101581.19;4919978;28;20067;-85
2021/10/07 00:08:36;;;;;;;0.70;0.65;;;;;;;10.24;99.91;101590.69;4922893;28;20049;-85
2021/10/07 00:11:03;;;;;;;0.60;0.60;;;;;;;10.15;99.89;101589.75;4921079;28;20035;-88
2021/10/07 00:13:29;;;;;;;4.45;1.50;;;;;;;10.03;100.00;101583.56;4922111;28;21122;-86
2021/10/07 00:15:56;;;;;;;1.17;0.85;;;;;;;9.93;100.00;101586.97;4902127;28;20102;-85
2021/10/07 00:18:23;;;;;;;2.38;0.90;;;;;;;9.85;100.00;101591.25;4938205;28;20058;-85
2021/10/07 00:20:50;;;;;;;2.58;1.50;;;;;;;9.76;100.00;101590.31;4907764;28;20136;-86
2021/10/07 00:23:21;;;;;;;1.83;1.73;;;;;;;9.67;100.00;101589.34;4922439;28;20059;-85
2021/10/07 00:25:48;;;;;;;1.17;1.17;;;;;;;9.57;100.00;101591.84;4904742;28;20055;-85
2021/10/07 00:28:14;;;;;;;2.42;1.58;;;;;;;9.51;100.00;101590.94;4920817;28;20066;-85
2021/10/07 00:30:42;;;;;;;1.50;1.20;;;;;;;9.44;100.00;101590.84;4921674;28;20133;-85
2021/10/07 00:33:16;;;;;;;3.30;1.55;;;;;;;9.38;100.00;101603.84;4905198;29;20055;-85
2021/10/07 00:35:50;;;;;;;1.52;1.52;;;;;;;9.30;100.00;101599.41;4904222;28;20082;-85
2021/10/07 00:41:01;;;;;;;4.85;1.00;;;;;;;9.16;100.00;101604.47;4908345;28;20027;-85
2021/10/07 00:43:28;;;;;;;2.78;1.52;;;;;;;9.10;100.00;101606.13;4922874;28;20057;-85
2021/10/07 00:45:58;;;;;;;1.88;1.73;;;;;;;9.06;100.00;101617.41;4917508;28;20050;-85
2021/10/07 00:48:25;;;;;;;3.70;2.03;;;;;;;9.04;100.00;101615.63;4907489;28;20170;-86
2021/10/07 00:50:52;;;;;;;2.28;1.63;;;;;;;9.04;100.00;101623.47;4921669;28;20043;-85
2021/10/07 00:53:20;;;;;;;2.15;2.03;;;;;;;8.99;100.00;101628.63;4922210;28;20469;-85
2021/10/07 00:55:48;;;;;;;3.03;2.28;;;;;;;8.95;100.00;101621.59;4937262;28;20059;-85
2021/10/07 00:58:17;;;;;;;2.53;2.33;;;;;;;8.93;100.00;101623.34;4920071;28;20043;-85
2021/10/07 01:00:45;;;;;;;1.95;1.17;;;;;;;8.90;100.00;101628.50;4907565;28;20051;-86
2021/10/07 01:03:12;;;;;;;2.92;1.63;;;;;;;8.86;100.00;101624.97;4917641;28;20055;-85
2021/10/07 01:05:39;;;;;;;2.05;1.88;;;;;;;8.85;100.00;101633.69;4905992;28;20887;-85
2021/10/07 01:08:07;;;;;;;3.55;2.40;;;;;;;8.84;100.00;101644.06;4918234;28;20130;-84
2021/10/07 01:10:34;;;;;;;3.15;2.28;;;;;;;8.84;100.00;101650.19;4934580;28;20071;-86
2021/10/07 01:13:01;;;;;;;5.07;2.83;;;;;;;8.94;100.00;101649.47;4904944;28;20055;-84
2021/10/07 01:15:27;;;;;;;8.73;1.88;;;;;;;9.11;100.00;101648.78;4903391;28;20062;-85
2021/10/07 01:17:54;;;;;;;2.58;1.73;;;;;;;9.30;100.00;101649.06;4905227;28;20569;-85
2021/10/07 01:20:20;;;;;;;2.55;1.55;;;;;;;9.48;100.00;101654.50;4921780;28;20050;-85
2021/10/07 01:22:47;;;;;;;1.30;1.30;;;;;;;9.64;100.00;101652.06;4920767;28;20039;-85
2021/10/07 01:25:13;;;;;;;2.92;1.85;;;;;;;9.77;100.00;101648.72;4920576;28;20583;-85
2021/10/07 01:27:40;;;;;;;2.25;1.70;;;;;;;9.88;100.00;101651.41;4917791;28;20059;-85
2021/10/07 01:30:13;;;;;;;4.28;2.65;;;;;;;9.99;100.00;101659.41;4907741;28;20482;-85
2021/10/07 01:32:43;;;;;;;1.45;1.35;;;;;;;10.06;100.00;101659.47;4902532;28;20050;-85
2021/10/07 01:35:11;;;;;;;3.85;1.30;;;;;;;10.12;100.00;101656.03;4933161;28;20046;-85
2021/10/07 01:37:38;;;;;;;1.85;1.52;;;;;;;10.17;100.00;101656.94;4919966;28;20877;-85
2021/10/07 01:40:08;;;;;;;7.38;1.77;;;;;;;10.21;100.00;101655.22;4906014;28;20058;-85
2021/10/07 01:42:34;;;;;;;3.47;1.58;;;;;;;10.23;100.00;101653.50;4922440;28;20051;-85
2021/10/07 01:45:01;;;;;;;1.65;1.55;;;;;;;10.26;100.00;101659.63;4905616;28;20057;-85
2021/10/07 01:47:27;;;;;;;2.25;1.42;;;;;;;10.29;100.00;101661.41;4919288;28;20058;-85
2021/10/07 01:49:54;;;;;;;3.13;1.55;;;;;;;10.34;100.00;101662.31;4918908;28;20051;-85
2021/10/07 01:52:20;;;;;;;2.97;2.13;;;;;;;10.37;100.00;101666.75;4920132;28;20063;-85
2021/10/07 01:54:47;;;;;;;3.25;1.85;;;;;;;10.41;100.00;101665.88;4921943;28;20046;-85
2021/10/07 01:57:13;;;;;;;1.45;1.27;;;;;;;10.45;100.00;101672.91;4902452;28;20146;-86
2021/10/07 01:59:40;;;;;;;1.95;1.85;;;;;;;10.48;100.00;101675.56;4921919;28;20027;-85
2021/10/07 02:02:07;;;;;;;2.17;1.08;;;;;;;10.51;100.00;101679.94;4908735;28;20039;-85
2021/10/07 02:04:33;;;;;;;5.25;1.55;;;;;;;10.52;100.00;101677.34;4908603;28;20062;-85
2021/10/07 02:07:00;;;;;;;2.63;1.38;;;;;;;10.55;100.00;101676.47;4918954;28;20058;-85
2021/10/07 02:09:26;;;;;;;1.90;1.45;;;;;;;10.55;100.00;101681.72;4923203;28;23728;-84
2021/10/07 02:11:53;;;;;;;3.50;1.33;;;;;;;10.56;99.75;101686.97;4922210;28;20912;-83
2021/10/07 02:14:20;;;;;;;1.95;1.20;;;;;;;10.56;99.70;101688.72;4936286;28;20051;-84
2021/10/07 02:16:46;;;;;;;3.00;1.55;;;;;;;10.57;100.00;101690.44;4908347;28;20134;-83
2021/10/07 02:19:13;;;;;;;1.50;1.40;;;;;;;10.56;99.55;101689.56;4905346;28;20047;-84
2021/10/07 02:21:40;;;;;;;2.25;1.70;;;;;;;10.56;99.39;101693.94;4918430;28;20149;-84
2021/10/07 02:24:06;;;;;;;1.10;1.00;;;;;;;10.54;99.34;101693.03;4911711;28;20051;-83
2021/10/07 02:26:33;;;;;;;1.15;0.90;;;;;;;10.53;99.43;101692.19;4905006;28;20869;-84
2021/10/07 02:28:59;;;;;;;2.22;1.00;;;;;;;10.55;99.30;101698.28;4909165;28;20043;-84
2021/10/07 02:31:26;;;;;;;4.30;0.95;;;;;;;10.57;99.27;101700.91;4924216;28;20051;-83
2021/10/07 02:33:54;;;;;;;1.60;1.02;;;;;;;10.61;99.21;101707.06;4908340;28;20047;-84
2021/10/07 02:36:21;;;;;;;2.03;1.40;;;;;;;10.61;98.69;101705.31;4924324;28;20204;-84
2021/10/07 02:38:48;;;;;;;2.05;1.45;;;;;;;10.64;98.55;101707.97;4907347;28;20077;-84
2021/10/07 02:41:15;;;;;;;2.25;1.20;;;;;;;10.68;98.59;101716.72;4943458;28;20047;-83
2021/10/07 02:43:43;;;;;;;1.48;1.38;;;;;;;10.68;98.82;101714.97;4924600;28;20054;-84
2021/10/07 02:46:13;;;;;;;2.92;1.08;;;;;;;10.68;98.45;101712.34;4904148;28;20131;-83
2021/10/07 02:48:41;;;;;;;1.40;1.25;;;;;;;10.69;98.58;101721.06;4923463;28;20664;-83
2021/10/07 02:51:08;;;;;;;1.95;1.48;;;;;;;10.68;98.59;101725.44;4909252;28;20051;-84
2021/10/07 02:53:34;;;;;;;4.10;1.10;;;;;;;10.69;98.50;101736.78;4924631;28;20043;-84
2021/10/07 02:56:01;;;;;;;2.10;1.30;;;;;;;10.67;98.13;101734.16;4917238;28;20043;-83
2021/10/07 02:58:27;;;;;;;2.75;1.38;;;;;;;10.65;97.82;101735.00;4923922;28;20126;-84
2021/10/07 03:00:54;;;;;;;2.28;1.30;;;;;;;10.64;98.20;101742.00;4922200;28;21312;-84
2021/10/07 03:03:21;;;;;;;1.20;1.10;;;;;;;10.63;98.15;101742.00;4921020;28;20059;-84
2021/10/07 03:05:48;;;;;;;1.85;1.48;;;;;;;10.62;98.43;101743.72;4908852;28;20059;-83
2021/10/07 03:08:14;;;;;;;0.93;0.80;;;;;;;10.65;98.53;101742.88;4906178;28;20106;-83
2021/10/07 03:10:44;;;;;;;2.42;1.27;;;;;;;10.66;98.46;101744.63;4921745;28;20442;-83
2021/10/07 03:13:11;;;;;;;4.70;1.88;;;;;;;10.69;98.56;101753.41;4922262;28;20364;-83
2021/10/07 03:15:37;;;;;;;1.05;1.00;;;;;;;10.67;97.92;101759.50;4903866;28;20059;-83
2021/10/07 03:18:04;;;;;;;2.17;1.25;;;;;;;10.68;98.09;101764.72;4939436;28;20640;-83
2021/10/07 03:20:30;;;;;;;3.40;1.25;;;;;;;10.68;98.11;101756.88;4923678;28;20087;-83
2021/10/07 03:22:57;;;;;;;3.30;1.98;;;;;;;10.67;98.20;101765.59;4921829;28;20043;-83
2021/10/07 03:25:24;;;;;;;2.65;1.05;;;;;;;10.67;98.35;101772.59;4909367;28;20985;-84
2021/10/07 03:27:50;;;;;;;1.38;1.27;;;;;;;10.66;98.41;101773.44;4923704;28;20051;-83
2021/10/07 03:30:17;;;;;;;3.72;1.40;;;;;;;10.66;98.26;101776.06;4915778;28;20062;-86
2021/10/07 03:32:44;;;;;;;3.05;1.27;;;;;;;10.67;98.51;101777.81;4908432;28;23994;-83
2021/10/07 03:35:11;;;;;;;1.30;1.30;;;;;;;10.67;98.06;101780.44;4906237;28;20078;-85
2021/10/07 03:37:38;;;;;;;1.48;1.17;;;;;;;10.64;98.17;101781.28;4922073;28;20062;-85
2021/10/07 03:40:11;;;;;;;5.95;1.60;;;;;;;10.64;98.30;101785.63;4922774;28;20146;-83
2021/10/07 03:42:38;;;;;;;1.02;1.02;;;;;;;10.63;98.52;101790.00;4919933;28;20063;-86
2021/10/07 03:45:07;;;;;;;2.00;1.10;;;;;;;10.62;98.22;101795.22;4922726;28;20124;-84
2021/10/07 03:47:34;;;;;;;1.20;1.10;;;;;;;10.61;98.50;101807.44;4920287;28;20796;-84
2021/10/07 03:50:01;;;;;;;1.08;1.00;;;;;;;10.59;98.57;101810.03;4939196;28;20414;-84
2021/10/07 03:52:30;;;;;;;1.30;1.20;;;;;;;10.63;98.32;101815.31;4924643;28;20047;-84
2021/10/07 03:54:57;;;;;;;3.25;1.90;;;;;;;10.63;98.46;101815.31;4920562;28;20138;-84
2021/10/07 03:57:26;;;;;;;1.52;1.25;;;;;;;10.64;98.24;101822.28;4909036;28;20456;-84
2021/10/07 03:59:53;;;;;;;1.60;1.50;;;;;;;10.64;98.47;101822.28;4906770;28;20138;-85
2021/10/07 04:02:20;;;;;;;1.90;1.45;;;;;;;10.61;98.40;101827.50;4923331;28;20047;-83
2021/10/07 04:04:46;;;;;;;3.42;1.20;;;;;;;10.59;98.51;101830.97;4919547;28;20533;-84
2021/10/07 04:07:13;;;;;;;4.03;1.63;;;;;;;10.60;98.52;101842.34;4919999;28;20055;-84
2021/10/07 04:09:40;;;;;;;1.77;1.33;;;;;;;10.60;98.30;101839.72;4923552;28;20055;-83
2021/10/07 04:12:14;;;;;;;1.42;1.33;;;;;;;10.61;98.34;101838.84;4922027;28;20785;-82
2021/10/07 04:14:41;;;;;;;1.70;1.42;;;;;;;10.62;98.59;101845.84;4923293;28;20122;-83
2021/10/07 04:17:07;;;;;;;1.42;1.13;;;;;;;10.63;98.77;101846.75;4921660;28;20129;-84
2021/10/07 04:19:35;;;;;;;1.58;1.42;;;;;;;10.65;98.72;101848.50;4901038;28;20054;-83
2021/10/07 04:22:04;;;;;;;9.50;1.58;;;;;;;10.65;98.54;101853.75;4922138;28;20069;-85
2021/10/07 04:24:30;;;;;;;0.98;0.93;;;;;;;10.65;98.56;101856.38;4907421;28;20051;-84
2021/10/07 04:26:57;;;;;;;3.60;1.77;;;;;;;10.66;98.54;101859.84;4921267;28;20055;-84
2021/10/07 04:29:23;;;;;;;4.07;1.20;;;;;;;10.67;98.37;101864.25;4924127;28;20089;-83
2021/10/07 04:31:50;;;;;;;2.13;1.25;;;;;;;10.64;98.26;101875.56;4920188;28;20054;-84
2021/10/07 04:34:16;;;;;;;4.82;2.13;;;;;;;10.65;98.17;101871.19;4922937;28;20126;-84
2021/10/07 04:36:43;;;;;;;1.67;1.58;;;;;;;10.64;98.25;101872.94;4920550;28;20043;-85
2021/10/07 04:39:09;;;;;;;1.60;1.17;;;;;;;10.69;98.50;101875.59;4906150;28;20418;-86
2021/10/07 04:41:36;;;;;;;1.75;1.65;;;;;;;10.65;98.38;101877.31;4905288;28;20437;-84
2021/10/07 04:44:03;;;;;;;1.77;1.58;;;;;;;10.68;97.90;101886.94;4923247;28;20554;-85
2021/10/07 04:46:29;;;;;;;2.97;1.58;;;;;;;10.70;98.60;101875.63;4920931;28;20066;-86
2021/10/07 04:48:56;;;;;;;2.08;1.00;;;;;;;10.70;97.93;101886.09;4923213;28;20047;-85
2021/10/07 04:51:23;;;;;;;1.52;1.38;;;;;;;10.72;97.99;101884.38;4922188;28;20046;-85
2021/10/07 04:53:49;;;;;;;1.20;1.10;;;;;;;10.74;97.71;101887.00;4921347;28;20172;-85
2021/10/07 04:56:16;;;;;;;2.75;1.90;;;;;;;10.74;97.70;101890.50;4919355;28;20075;-86
2021/10/07 04:58:42;;;;;;;3.20;1.90;;;;;;;10.74;97.63;101890.50;4904641;28;20817;-85
2021/10/07 05:01:09;;;;;;;2.05;1.60;;;;;;;10.74;97.30;101900.97;4921806;28;20043;-85
2021/10/07 05:03:35;;;;;;;1.80;1.70;;;;;;;10.73;97.08;101903.59;4903811;28;20703;-85
2021/10/07 05:06:02;;;;;;;4.63;1.83;;;;;;;10.74;97.50;101910.56;4922024;28;20078;-85
2021/10/07 05:08:28;;;;;;;3.88;1.48;;;;;;;10.73;97.32;101914.06;4922972;28;20047;-85
2021/10/07 05:10:55;;;;;;;1.73;1.63;;;;;;;10.70;96.85;101914.91;4919037;28;20051;-85
2021/10/07 05:13:21;;;;;;;2.85;2.03;;;;;;;10.69;97.34;101917.50;4921070;28;20051;-85
2021/10/07 05:15:48;;;;;;;4.43;1.60;;;;;;;10.65;97.36;101920.94;4936198;28;20050;-85
2021/10/07 05:18:16;;;;;;;3.38;2.53;;;;;;;10.63;97.31;101922.69;4904023;28;20142;-85
2021/10/07 05:20:45;;;;;;;2.40;1.50;;;;;;;10.61;97.52;101927.88;4934656;28;20050;-85
2021/10/07 05:23:14;;;;;;;3.40;2.10;;;;;;;10.59;97.54;101927.00;4917548;28;20054;-85
2021/10/07 05:25:40;;;;;;;2.42;2.22;;;;;;;10.57;97.57;101919.13;4922639;28;20047;-85
2021/10/07 05:28:07;;;;;;;2.35;2.15;;;;;;;10.56;97.79;101926.97;4936913;28;20043;-85
2021/10/07 05:30:34;;;;;;;2.42;2.17;;;;;;;10.51;97.64;101924.28;4921887;28;20039;-86
2021/10/07 05:33:01;;;;;;;1.98;1.88;;;;;;;10.46;97.95;101922.50;4903926;28;20062;-86
2021/10/07 05:35:28;;;;;;;6.57;2.67;;;;;;;10.41;98.04;101920.66;4918231;28;20723;-85
2021/10/07 05:37:55;;;;;;;2.40;2.15;;;;;;;10.34;98.22;101925.78;4920833;28;20051;-85
2021/10/07 05:40:21;;;;;;;2.97;1.90;;;;;;;10.25;98.64;101927.44;4904420;28;20093;-86
2021/10/07 05:42:48;;;;;;;3.60;2.58;;;;;;;10.17;98.91;101931.69;4922269;28;20051;-85
2021/10/07 05:45:15;;;;;;;5.28;2.80;;;;;;;10.12;99.49;101930.75;4915678;28;20050;-86
2021/10/07 05:47:42;;;;;;;4.32;2.30;;;;;;;10.06;99.95;101935.88;4908224;28;20058;-85
2021/10/07 05:50:12;;;;;;;6.05;2.05;;;;;;;9.99;99.74;101945.41;4922460;28;20050;-86
2021/10/07 05:52:38;;;;;;;4.10;1.65;;;;;;;9.94;100.00;101941.84;4917861;28;20465;-85
2021/10/07 05:55:06;;;;;;;3.08;2.30;;;;;;;9.87;100.00;101953.94;4921055;28;20940;-85
2021/10/07 05:57:33;;;;;;;5.22;3.13;;;;;;;9.82;100.00;101955.59;4920276;28;20127;-85
2021/10/07 05:59:59;;;;;;;7.65;3.03;;;;;;;9.82;100.00;101955.59;4920636;28;20047;-86
2021/10/07 06:02:26;;;;;;;5.25;3.22;;;;;;;9.83;100.00;101957.38;4906506;28;20040;-85
2021/10/07 06:04:55;;;;;;;6.22;3.20;;;;;;;9.86;100.00;101967.88;4917852;29;20064;-86
2021/10/07 06:07:22;;;;;;;3.10;2.80;;;;;;;9.85;100.00;101971.34;4919059;28;20062;-86
2021/10/07 06:09:48;;;;;;;5.63;2.80;;;;;;;9.79;100.00;101968.66;4914843;29;20052;-85
2021/10/07 06:12:17;;;;;;;4.00;2.35;;;;;;;9.73;100.00;101971.16;4918578;29;20126;-85
2021/10/07 06:14:44;;;;;;;5.45;2.65;;;;;;;9.63;100.00;101983.19;4901732;29;20063;-85
2021/10/07 06:17:13;;;;;;;6.65;4.03;;;;;;;9.56;100.00;101983.97;4915733;29;20059;-86
2021/10/07 06:19:41;;;;;;;6.65;3.35;;;;;;;9.52;100.00;101990.00;4918293;29;20051;-86
2021/10/07 06:22:08;;;;;;;4.47;3.65;;;;;;;9.49;100.00;101987.31;4897839;29;20047;-85
2021/10/07 06:24:36;;;;;;;4.22;2.88;;;;;;;9.47;100.00;101994.28;4919744;29;20051;-86
2021/10/07 06:27:03;;;;;;;4.07;3.20;;;;;;;9.43;100.00;101991.59;4917383;29;20174;-85
2021/10/07 06:29:30;;;;;;;3.78;3.03;;;;;;;9.41;100.00;101987.19;4914913;29;20055;-85
2021/10/07 06:31:56;;;;;;;5.20;3.15;;;;;;;9.40;100.00;101998.50;4902641;29;20047;-85
2021/10/07 06:34:23;;;;;;;3.88;2.65;;;;;;;9.39;100.00;101997.63;4906103;29;20055;-85
2021/10/07 06:36:50;;;;;;;7.97;3.63;;;;;;;9.40;100.00;102007.22;4902542;29;20043;-85
2021/10/07 06:39:17;;;;;;;4.10;3.72;;;;;;;9.47;100.00;102007.34;4917387;29;20127;-85
2021/10/07 06:41:44;;;;;;;6.75;4.10;;;;;;;9.55;100.00;102011.81;4917704;29;20885;-85
2021/10/07 06:44:11;;;;;;;4.75;2.63;;;;;;;9.75;100.00;102019.13;4902363;29;20048;-85
2021/10/07 06:46:38;;;;;;;4.07;3.25;;;;;;;9.98;100.00;102016.88;4914440;29;20044;-86
2021/10/07 06:49:04;;;;;;;4.38;4.03;;;;;;;10.44;100.00;102021.94;4918603;29;20124;-86
2021/10/07 06:51:31;;;;;;;4.30;2.88;;;;;;;10.98;100.00;102024.38;4915499;29;20135;-86
2021/10/07 06:54:00;;;;;;;6.38;3.05;;;;;;;11.50;99.06;102027.50;4902891;29;20114;-86
2021/10/07 06:56:27;;;;;;;4.97;2.58;;;;;;;12.00;96.58;102026.19;4910714;29;20051;-85
2021/10/07 06:58:54;;;;;;;4.22;2.97;;;;;;;12.45;94.00;102034.38;4918219;29;20052;-86
2021/10/07 07:01:23;;;;;;;4.25;2.60;;;;;;;12.85;92.29;102031.94;4915173;28;22258;-86
2021/10/07 07:03:52;;;;;;;6.18;2.95;;;;;;;13.31;90.58;102032.91;4928214;29;20052;-86
2021/10/07 07:06:20;;;;;;;5.75;3.08;;;;;;;13.73;88.27;102037.38;4878906;29;20052;-85
2021/10/07 07:08:47;;;;;;;6.65;2.05;;;;;;;14.14;86.59;102035.56;4883958;29;20056;-86
2021/10/07 07:11:14;;;;;;;2.90;2.28;;;;;;;14.50;83.95;102041.66;4885707;29;20049;-86
2021/10/07 07:13:41;;;;;;;3.20;1.65;;;;;;;14.89;82.29;102031.88;4882366;29;20530;-85
2021/10/07 07:16:08;;;;;;;2.58;2.13;;;;;;;15.22;79.86;102029.91;4882302;29;20055;-85
2021/10/07 07:18:34;;;;;;;2.83;2.63;;;;;;;15.56;78.05;102039.38;4916042;29;20063;-85
2021/10/07 07:21:01;;;;;;;2.42;2.10;;;;;;;15.82;76.66;102038.31;4909326;29;20048;-83
2021/10/07 07:23:27;;;;;;;6.95;2.17;;;;;;;16.12;75.47;102046.84;4915319;29;20060;-85
2021/10/07 07:25:54;;;;;;;4.22;2.53;;;;;;;16.44;73.42;102043.88;4899574;29;20052;-83
2021/10/07 07:28:21;;;;;;;2.65;1.98;;;;;;;16.68;72.00;102047.13;4900777;29;20754;-83
2021/10/07 07:30:50;;;;;;;3.30;2.55;;;;;;;16.86;70.08;102046.00;4896894;29;20457;-85
2021/10/07 07:33:21;;;;;;;4.28;2.00;;;;;;;16.98;69.57;102055.59;4884574;29;22877;-84
2021/10/07 07:35:48;;;;;;;2.38;2.17;;;;;;;16.98;69.12;102056.44;4899460;29;20060;-84
2021/10/07 07:38:14;;;;;;;4.32;2.08;;;;;;;16.52;69.95;102065.78;4894972;29;20048;-83
2021/10/07 07:40:41;;;;;;;2.33;2.08;;;;;;;15.86;71.33;102062.03;4916220;29;20044;-84
2021/10/07 07:43:07;;;;;;;2.97;1.48;;;;;;;15.24;73.34;102068.59;4899292;29;20040;-84
2021/10/07 07:45:34;;;;;;;3.03;2.70;;;;;;;14.60;74.75;102070.59;4899373;29;20044;-84
2021/10/07 07:48:01;;;;;;;1.95;1.85;;;;;;;14.09;76.80;102079.47;4914077;29;20048;-84
2021/10/07 07:50:29;;;;;;;3.10;1.88;;;;;;;13.71;78.35;102078.63;4883070;29;20073;-84
2021/10/07 07:52:58;;;;;;;2.10;2.00;;;;;;;13.44;79.37;102079.44;4899194;29;20062;-84
2021/10/07 07:55:24;;;;;;;3.55;2.22;;;;;;;13.20;80.16;102086.34;4877725;29;20533;-86
2021/10/07 07:57:52;;;;;;;5.15;2.45;;;;;;;12.96;80.98;102089.78;4884883;29;20137;-85
2021/10/07 08:00:18;;;;;;;2.83;1.90;;;;;;;12.73;81.94;102093.16;4884116;28;20135;-84
2021/10/07 08:02:45;;;;;;;3.95;2.53;;;;;;;12.60;82.69;102093.97;4883563;29;20084;-84
2021/10/07 08:05:12;;;;;;;5.78;4.03;;;;;;;12.51;83.56;102093.94;4904700;29;20078;-83
2021/10/07 08:07:39;;;;;;;2.92;2.63;;;;;;;12.47;84.06;102093.03;4917421;29;20507;-84
2021/10/07 08:10:06;;;;;;;5.25;3.20;;;;;;;12.47;84.00;102094.78;4907449;29;20099;-84
2021/10/07 08:12:34;;;;;;;3.72;3.38;;;;;;;12.44;84.15;102098.25;4905016;29;20066;-85
2021/10/07 08:15:02;;;;;;;6.80;3.97;;;;;;;12.44;84.83;102094.75;4918145;29;20352;-84
2021/10/07 08:17:29;;;;;;;3.78;3.10;;;;;;;12.45;84.48;102099.13;4916773;29;20162;-84
2021/10/07 08:19:59;;;;;;;5.07;2.88;;;;;;;12.48;84.44;102107.06;4917524;29;20047;-84
2021/10/07 08:22:25;;;;;;;7.63;3.05;;;;;;;12.46;84.95;102101.75;4935938;28;20039;-84
2021/10/07 08:24:52;;;;;;;3.60;2.78;;;;;;;12.47;84.97;102097.41;4915012;29;20047;-86
2021/10/07 08:27:19;;;;;;;5.53;3.83;;;;;;;12.50;85.13;102103.56;4904440;29;20047;-86
2021/10/07 08:29:47;;;;;;;5.88;3.88;;;;;;;12.53;85.15;102108.81;4918994;29;20067;-85
2021/10/07 08:32:14;;;;;;;10.55;3.35;;;;;;;12.55;85.12;102112.34;4902959;29;20126;-85
2021/10/07 08:34:41;;;;;;;4.13;3.65;;;;;;;12.58;85.11;102117.63;4905096;29;20799;-85
2021/10/07 08:37:08;;;;;;;4.53;3.88;;;;;;;12.61;85.36;102116.75;4902004;29;20050;-85
2021/10/07 08:39:34;;;;;;;5.88;4.35;;;;;;;12.60;85.08;102112.38;4918418;28;20143;-87
2021/10/07 08:42:01;;;;;;;4.07;3.60;;;;;;;12.62;84.71;102115.91;4918763;29;20055;-86
2021/10/07 08:44:29;;;;;;;4.80;4.22;;;;;;;12.70;84.87;102121.19;4905230;29;20130;-86
2021/10/07 08:46:57;;;;;;;4.75;3.67;;;;;;;12.82;84.50;102117.75;4905463;29;20134;-86
2021/10/07 08:49:27;;;;;;;5.03;4.03;;;;;;;12.90;83.88;102114.28;4915545;29;20052;-86
2021/10/07 08:51:55;;;;;;;5.95;3.65;;;;;;;13.06;83.46;102120.50;4919037;29;20044;-86
2021/10/07 08:54:21;;;;;;;7.93;3.72;;;;;;;13.29;82.19;102118.81;4914216;29;20071;-86
2021/10/07 08:56:49;;;;;;;3.65;3.35;;;;;;;13.47;81.68;102121.53;4917118;29;20191;-85
2021/10/07 08:59:19;;;;;;;10.40;4.72;;;;;;;13.56;80.23;102128.59;4905373;29;20055;-85
2021/10/07 09:01:51;;;;;;;5.32;4.40;;;;;;;13.67;80.09;102112.81;4899118;29;20047;-85
2021/10/07 09:04:27;;;;;;;7.82;3.95;;;;;;;13.75;79.85;102124.22;4900547;29;21081;-86
2021/10/07 09:07:02;;;;;;;5.45;4.15;;;;;;;13.68;79.71;102122.47;4885033;29;20427;-84
2021/10/07 09:09:30;;;;;;;5.28;4.15;;;;;;;13.66;80.13;102134.72;4886052;29;20048;-86
2021/10/07 09:12:09;;;;;;;5.57;3.38;;;;;;;13.72;80.05;102138.25;4882128;29;20059;-85
2021/10/07 09:14:40;;;;;;;4.35;3.22;;;;;;;13.97;79.50;102129.50;4885607;29;20145;-85
2021/10/07 09:17:10;;;;;;;4.07;3.38;;;;;;;14.30;78.13;102127.75;4913933;29;20416;-85
2021/10/07 09:19:42;;;;;;;5.93;3.42;;;;;;;14.72;76.93;102131.25;4900526;29;20063;-86
2021/10/07 09:22:49;;;;;;;7.55;4.28;;;;;;;15.19;72.86;102122.25;4902191;29;20063;-85
2021/10/07 09:25:15;;;;;;;2.72;2.53;;;;;;;15.64;72.94;102122.00;4862381;29;20052;-85
2021/10/07 09:27:42;;;;;;;3.90;3.40;;;;;;;16.06;71.28;102134.97;4884969;29;20107;-85
2021/10/07 09:30:11;;;;;;;6.63;3.20;;;;;;;16.17;69.78;102129.59;4883245;29;20052;-85
2021/10/07 09:32:46;;;;;;;3.42;3.05;;;;;;;16.25;69.86;102132.16;4882381;29;20067;-85
2021/10/07 09:35:17;;;;;;;3.63;3.28;;;;;;;16.32;69.77;102134.72;4897585;29;21306;-83
2021/10/07 09:37:51;;;;;;;4.28;2.95;;;;;;;16.46;67.98;102144.28;4914512;29;20126;-86
2021/10/07 09:40:25;;;;;;;3.30;2.92;;;;;;;16.64;68.09;102138.81;4885697;29;20054;-86
2021/10/07 09:43:02;;;;;;;3.65;2.90;;;;;;;16.81;67.21;102137.75;4884222;29;20044;-86
2021/10/07 09:45:36;;;;;;;4.57;3.28;;;;;;;16.79;67.29;102140.44;4886470;29;20099;-83
2021/10/07 09:48:05;;;;;;;;;;;;;;;16.79;66.63;102152.75;4897973;29;20127;-84
2021/10/07 09:50:37;;;;;;;3.92;2.38;;;;;;;17.35;65.46;102142.41;4899467;29;19931;-86
2021/10/07 09:53:17;;;;;;;2.60;2.40;;;;;;;18.07;62.88;102148.44;4901405;29;20047;-85
2021/10/07 09:55:50;;;;;;;2.67;2.47;;;;;;;19.07;59.46;102145.72;4897613;29;20077;-86
2021/10/07 09:58:22;;;;;;;2.90;2.53;;;;;;;19.83;57.15;102146.78;4898914;29;20047;-83
2021/10/07 10:00:56;;;;;;;2.33;1.85;;;;;;;19.97;56.06;102147.31;4883287;29;20191;-84
2021/10/07 10:03:24;;;;;;;2.17;1.80;;;;;;;20.11;55.63;102146.94;4907294;28;20059;-86
2021/10/07 10:05:54;;;;;;;2.78;1.55;;;;;;;20.29;54.95;102144.75;4917539;28;20055;-86
2021/10/07 10:08:22;;;;;;;1.95;1.75;;;;;;;20.14;54.98;102146.88;4909372;28;20195;-86
2021/10/07 10:10:52;;;;;;;2.85;2.17;;;;;;;19.94;54.06;102146.50;4919061;28;20050;-84
2021/10/07 10:13:18;;;;;;;1.92;1.83;;;;;;;19.54;55.12;102144.75;4921281;28;20039;-84
2021/10/07 10:15:45;;;;;;;2.70;2.50;;;;;;;19.07;54.43;102147.53;4904511;28;20051;-85
2021/10/07 10:18:14;;;;;;;5.93;2.25;;;;;;;18.89;56.17;102152.31;4902356;28;20506;-83
2021/10/07 10:20:51;;;;;;;3.80;1.95;;;;;;;18.82;55.12;102154.16;4908672;28;20646;-84
2021/10/07 10:23:25;;;;;;;2.28;2.10;;;;;;;18.76;55.10;102156.06;4917762;28;20050;-84
2021/10/07 10:26:10;;;;;;;2.47;1.58;;;;;;;18.94;55.80;102150.44;4905180;28;20374;-83
2021/10/07 10:28:40;;;;;;;1.95;1.77;;;;;;;19.26;55.44;102145.38;4899439;28;20058;-85
2021/10/07 10:31:17;;;;;;;1.80;1.20;;;;;;;19.21;53.90;102149.91;4938662;28;20062;-85
2021/10/07 10:33:48;;;;;;;1.88;1.67;;;;;;;19.05;54.80;102158.19;4920821;28;20141;-84
2021/10/07 10:36:28;;;;;;;5.30;1.70;;;;;;;18.95;54.74;102161.91;4902931;28;20134;-84
2021/10/07 10:39:08;;;;;;;1.98;1.67;;;;;;;19.09;54.06;102157.19;4922668;28;20122;-85
2021/10/07 10:41:59;;;;;;;2.15;1.20;;;;;;;19.73;53.07;102167.31;4905895;28;20074;-84
2021/10/07 10:44:35;;;;;;;2.97;1.67;;;;;;;21.02;50.53;102167.63;4925614;28;20691;-84
2021/10/07 10:47:07;;;;;;;1.83;1.33;;;;;;;21.29;49.18;102167.75;4922660;28;20050;-83
2021/10/07 10:49:49;;;;;;;2.40;1.27;;;;;;;21.05;49.33;102167.50;4942880;28;20505;-87
2021/10/07 10:52:24;;;;;;;2.05;1.67;;;;;;;20.76;49.72;102177.19;4924720;28;20098;-84
2021/10/07 10:54:56;;;;;;;1.75;1.20;;;;;;;20.54;50.22;102182.19;4923812;28;20055;-84
2021/10/07 10:57:52;;;;;;;0.88;0.85;;;;;;;20.40;50.22;102176.38;4910260;28;20055;-84
2021/10/07 11:00:30;;;;;;;3.30;1.27;;;;;;;20.19;50.10;102180.44;4926623;28;20051;-84
2021/10/07 11:03:10;;;;;;;1.27;0.80;;;;;;;20.04;50.89;102185.25;4926444;28;20055;-85
2021/10/07 11:05:55;;;;;;;1.60;1.50;;;;;;;19.93;50.93;102182.84;4921426;29;20063;-84
2021/10/07 11:08:24;;;;;;;1.75;1.30;;;;;;;19.90;51.47;102187.34;4888408;29;20052;-84
2021/10/07 11:11:02;;;;;;;3.88;1.42;;;;;;;19.81;51.39;102185.75;4898851;29;20127;-85
2021/10/07 11:13:33;;;;;;;5.20;1.13;;;;;;;19.78;51.47;102186.69;4902913;29;20054;-83
2021/10/07 11:16:04;;;;;;;4.55;1.20;;;;;;;19.75;51.31;102188.53;4899667;29;20044;-84
2021/10/07 11:18:35;;;;;;;2.47;1.13;;;;;;;19.73;50.51;102187.72;4883108;29;20048;-84
2021/10/07 11:21:11;;;;;;;1.67;1.05;;;;;;;19.65;51.45;102185.22;4881480;29;20444;-84
2021/10/07 11:23:37;;;;;;;1.65;1.55;;;;;;;19.50;51.75;102195.28;4885635;29;20067;-85
2021/10/07 11:26:07;;;;;;;1.60;1.50;;;;;;;19.53;51.52;102198.78;4887623;29;20056;-85
2021/10/07 11:28:45;;;;;;;2.40;1.17;;;;;;;19.53;51.43;102197.00;4901079;29;20052;-84
2021/10/07 11:31:16;;;;;;;2.28;1.25;;;;;;;19.50;51.66;102195.28;4884570;29;20631;-85
2021/10/07 11:33:49;;;;;;;0.95;0.82;;;;;;;19.21;51.84;102205.66;4900761;29;20052;-84